createdAt,value
2023-09-13T00:00:53.487Z,952.5550537
2023-09-13T00:01:55.744Z,952.5524902
2023-09-13T00:02:58.556Z,952.5205688
2023-09-13T00:04:00.490Z,952.5379028
2023-09-13T00:05:02.516Z,952.5563965
2023-09-13T00:06:04.473Z,952.5562744
2023-09-13T00:07:37.077Z,952.4963989
2023-09-13T00:08:39.140Z,952.5215454
2023-09-13T00:09:41.565Z,952.5094604
2023-09-13T00:10:43.615Z,952.5521851
2023-09-13T00:11:45.914Z,952.5241699
2023-09-13T00:12:47.912Z,952.4852905
2023-09-13T00:13:50.271Z,952.4915771
2023-09-13T00:14:52.720Z,952.5179443
2023-09-13T00:15:55.004Z,952.5253296
2023-09-13T00:16:57.451Z,952.5390625
2023-09-13T00:17:58.755Z,952.5728149
2023-09-13T00:19:01.196Z,952.6398315
2023-09-13T00:20:03.228Z,952.7098389
2023-09-13T00:21:36.166Z,952.6826782
2023-09-13T00:22:38.144Z,952.678894
2023-09-13T00:23:40.425Z,952.6659546
2023-09-13T00:24:42.494Z,952.7156372
2023-09-13T00:25:45.033Z,952.6812744
2023-09-13T00:26:47.217Z,952.7022095
2023-09-13T00:27:49.666Z,952.6992798
2023-09-13T00:28:51.519Z,952.6727905
2023-09-13T00:29:53.638Z,952.6954956
2023-09-13T00:30:55.848Z,952.6576538
2023-09-13T00:31:58.710Z,952.6340332
2023-09-13T00:33:00.985Z,952.6159668
2023-09-13T00:34:02.997Z,952.5324097
2023-09-13T00:35:36.197Z,952.5097046
2023-09-13T00:36:38.106Z,952.4675293
2023-09-13T00:37:40.104Z,952.4813232
2023-09-13T00:38:42.235Z,952.4944458
2023-09-13T00:39:44.246Z,952.4821777
2023-09-13T00:40:46.510Z,952.5249023
2023-09-13T00:41:48.747Z,952.5317383
2023-09-13T00:42:50.535Z,952.4910889
2023-09-13T00:43:52.698Z,952.5043945
2023-09-13T00:44:54.694Z,952.550293
2023-09-13T00:45:56.786Z,952.5474243
2023-09-13T00:46:59.230Z,952.5706177
2023-09-13T00:49:03.458Z,952.5320435
2023-09-13T00:50:51.003Z,952.4649048
2023-09-13T00:51:38.290Z,952.4552612
2023-09-13T00:52:40.816Z,952.4515381
2023-09-13T00:53:43.457Z,952.4628296
2023-09-13T00:54:45.480Z,952.4268799
2023-09-13T00:55:47.463Z,952.4394531
2023-09-13T00:56:49.948Z,952.4251709
2023-09-13T00:57:52.185Z,952.4057617
2023-09-13T00:58:54.179Z,952.3521118
2023-09-13T00:59:56.156Z,952.3804932
2023-09-13T01:00:58.221Z,952.3736572
2023-09-13T01:02:01.085Z,952.3696899
2023-09-13T01:03:03.641Z,952.3615112
2023-09-13T01:04:36.801Z,952.3643188
2023-09-13T01:05:39.225Z,952.3982544
2023-09-13T01:06:42.125Z,952.4240723
2023-09-13T01:07:44.198Z,952.4290771
2023-09-13T01:08:46.250Z,952.5010376
2023-09-13T01:09:48.700Z,952.5424805
2023-09-13T01:10:51.023Z,952.5112305
2023-09-13T01:11:52.950Z,952.492981
2023-09-13T01:12:55.134Z,952.5187378
2023-09-13T01:13:57.049Z,952.5435791
2023-09-13T01:14:59.481Z,952.5484619
2023-09-13T01:16:02.056Z,952.576416
2023-09-13T01:17:04.567Z,952.5408325
2023-09-13T01:18:37.155Z,952.5251465
2023-09-13T01:19:39.262Z,952.4888916
2023-09-13T01:20:41.589Z,952.5111694
2023-09-13T01:21:43.682Z,952.4519043
2023-09-13T01:22:45.662Z,952.4370117
2023-09-13T01:23:47.661Z,952.4898682
2023-09-13T01:24:50.011Z,952.4436646
2023-09-13T01:25:52.310Z,952.4429932
2023-09-13T01:26:54.658Z,952.5010986
2023-09-13T01:27:56.745Z,952.4749146
2023-09-13T01:28:58.590Z,952.4841919
2023-09-13T01:30:00.970Z,952.4936523
2023-09-13T01:31:02.974Z,952.5929565
2023-09-13T01:32:35.942Z,952.5674438
2023-09-13T01:33:38.349Z,952.5982666
2023-09-13T01:34:40.645Z,952.6235962
2023-09-13T01:35:42.906Z,952.6268921
2023-09-13T01:36:45.365Z,952.6384277
2023-09-13T01:37:47.691Z,952.600647
2023-09-13T01:38:50.151Z,952.5881348
2023-09-13T01:39:52.138Z,952.6259155
2023-09-13T01:40:54.052Z,952.5985718
2023-09-13T01:41:56.213Z,952.6292114
2023-09-13T01:42:59.043Z,952.6248169
2023-09-13T01:44:00.933Z,952.6333008
2023-09-13T01:45:03.019Z,952.6101685
2023-09-13T01:46:35.787Z,952.6538086
2023-09-13T01:47:37.871Z,952.6359863
2023-09-13T01:48:40.189Z,952.6515503
2023-09-13T01:49:42.056Z,952.6235962
2023-09-13T01:50:44.260Z,952.6600952
2023-09-13T01:51:46.405Z,952.6345825
2023-09-13T01:52:49.062Z,952.6456299
2023-09-13T01:53:51.195Z,952.6586914
2023-09-13T01:54:53.467Z,952.7156372
2023-09-13T01:55:56.336Z,952.6826782
2023-09-13T01:56:58.430Z,952.6637573
2023-09-13T01:58:00.556Z,952.6365356
2023-09-13T01:59:02.447Z,952.6273193
2023-09-13T02:00:35.068Z,952.6383057
2023-09-13T02:01:37.357Z,952.6529541
2023-09-13T02:02:39.110Z,952.6472778
2023-09-13T02:03:41.656Z,952.6520386
2023-09-13T02:04:43.840Z,952.6567383
2023-09-13T02:05:47.758Z,952.6417236
2023-09-13T02:06:48.216Z,952.6593628
2023-09-13T02:07:50.170Z,952.6361084
2023-09-13T02:08:52.095Z,952.6633301
2023-09-13T02:09:54.213Z,952.6755981
2023-09-13T02:10:56.911Z,952.6665039
2023-09-13T02:11:58.883Z,952.7084961
2023-09-13T02:13:01.032Z,952.6729126
2023-09-13T02:14:02.940Z,952.692627
2023-09-13T02:15:35.721Z,952.7196655
2023-09-13T02:16:37.835Z,952.7055664
2023-09-13T02:17:39.988Z,952.7440796
2023-09-13T02:18:42.027Z,952.7687988
2023-09-13T02:19:44.441Z,952.7455444
2023-09-13T02:20:46.980Z,952.7695313
2023-09-13T02:21:49.043Z,952.7399902
2023-09-13T02:22:51.051Z,952.7572632
2023-09-13T02:23:53.225Z,952.8110352
2023-09-13T02:24:55.266Z,952.8347168
2023-09-13T02:25:57.502Z,952.8076782
2023-09-13T02:26:59.819Z,952.7858887
2023-09-13T02:28:02.935Z,952.7254639
2023-09-13T02:29:36.393Z,952.7271118
2023-09-13T02:30:38.630Z,952.7159424
2023-09-13T02:31:40.835Z,952.7242432
2023-09-13T02:32:43.635Z,952.7751465
2023-09-13T02:33:45.774Z,952.7479858
2023-09-13T02:34:46.693Z,952.7684937
2023-09-13T02:35:48.703Z,952.789856
2023-09-13T02:36:50.935Z,952.7990723
2023-09-13T02:37:53.141Z,952.8245239
2023-09-13T02:38:55.171Z,952.7999268
2023-09-13T02:39:57.333Z,952.7546997
2023-09-13T02:40:59.811Z,952.7539063
2023-09-13T02:42:02.235Z,952.7998657
2023-09-13T02:43:35.854Z,952.8032837
2023-09-13T02:44:38.398Z,952.8331909
2023-09-13T02:45:40.561Z,952.7979736
2023-09-13T02:46:42.741Z,952.8303223
2023-09-13T02:47:44.631Z,952.802002
2023-09-13T02:48:46.682Z,952.8208008
2023-09-13T02:49:49.041Z,952.8356323
2023-09-13T02:50:50.918Z,952.822998
2023-09-13T02:51:52.237Z,952.8569336
2023-09-13T02:52:54.759Z,952.8171997
2023-09-13T02:53:57.069Z,952.8696289
2023-09-13T02:54:59.044Z,952.8325806
2023-09-13T02:56:00.942Z,952.9014282
2023-09-13T02:57:03.582Z,952.9081421
2023-09-13T02:58:36.119Z,952.864502
2023-09-13T02:59:38.113Z,952.8826294
2023-09-13T03:00:40.085Z,952.8867188
2023-09-13T03:01:42.234Z,952.8894653
2023-09-13T03:02:44.530Z,952.8664551
2023-09-13T03:03:46.988Z,952.9174805
2023-09-13T03:04:48.915Z,952.9551392
2023-09-13T03:05:50.934Z,952.9360962
2023-09-13T03:06:53.017Z,952.9276733
2023-09-13T03:07:55.086Z,952.9604492
2023-09-13T03:08:56.981Z,952.9489136
2023-09-13T03:09:59.090Z,952.9321899
2023-09-13T03:11:01.047Z,952.9213257
2023-09-13T03:12:03.317Z,952.9506226
2023-09-13T03:13:36.064Z,952.954895
2023-09-13T03:14:38.072Z,952.9662476
2023-09-13T03:15:40.512Z,952.9852905
2023-09-13T03:16:42.564Z,953.0073242
2023-09-13T03:17:44.702Z,953.0380249
2023-09-13T03:18:46.654Z,953.007019
2023-09-13T03:19:48.568Z,953.0543823
2023-09-13T03:20:50.520Z,953.0543823
2023-09-13T03:21:52.817Z,953.1314087
2023-09-13T03:22:55.438Z,953.0974731
2023-09-13T03:23:57.470Z,953.0934448
2023-09-13T03:24:59.457Z,953.1149292
2023-09-13T03:26:01.440Z,953.0754395
2023-09-13T03:27:34.531Z,953.0999756
2023-09-13T03:28:36.557Z,953.1403809
2023-09-13T03:29:38.503Z,953.2354736
2023-09-13T03:30:40.732Z,953.2614746
2023-09-13T03:31:42.697Z,953.4273682
2023-09-13T03:32:44.687Z,953.4810791
2023-09-13T03:33:47.422Z,953.3876343
2023-09-13T03:34:49.071Z,953.2993164
2023-09-13T03:35:51.291Z,953.1733398
2023-09-13T03:36:53.647Z,953.2161865
2023-09-13T03:37:56.009Z,953.2460938
2023-09-13T03:38:57.980Z,953.2595825
2023-09-13T03:40:00.005Z,953.302002
2023-09-13T03:41:01.248Z,953.1486816
2023-09-13T03:42:34.543Z,953.0864258
2023-09-13T03:43:36.886Z,952.975708
2023-09-13T03:44:38.565Z,953.0057983
2023-09-13T03:45:40.523Z,953.1621704
2023-09-13T03:46:42.532Z,953.0837402
2023-09-13T03:47:44.668Z,953.048645
2023-09-13T03:48:48.291Z,952.9942017
2023-09-13T03:49:48.365Z,952.9936523
2023-09-13T03:50:50.462Z,952.9812622
2023-09-13T03:51:52.395Z,953.024292
2023-09-13T03:52:54.419Z,952.9664307
2023-09-13T03:53:56.534Z,952.8867188
2023-09-13T03:54:58.667Z,952.8751831
2023-09-13T03:56:01.486Z,952.8751831
2023-09-13T03:57:34.128Z,952.9074707
2023-09-13T03:58:36.341Z,952.914856
2023-09-13T03:59:38.296Z,952.8936157
2023-09-13T04:00:40.541Z,952.8251343
2023-09-13T04:01:42.815Z,952.7971802
2023-09-13T04:02:44.633Z,952.7990723
2023-09-13T04:03:46.957Z,952.7941284
2023-09-13T04:04:48.699Z,952.7382202
2023-09-13T04:05:50.595Z,952.7259521
2023-09-13T04:06:52.693Z,952.6789551
2023-09-13T04:07:54.407Z,952.687439
2023-09-13T04:08:56.429Z,952.7145386
2023-09-13T04:09:57.809Z,952.6951294
2023-09-13T04:10:59.598Z,952.6844482
2023-09-13T04:12:02.069Z,952.7385254
2023-09-13T04:13:34.607Z,952.7515869
2023-09-13T04:14:36.600Z,952.7583618
2023-09-13T04:15:39.065Z,952.8115845
2023-09-13T04:16:40.337Z,952.8106079
2023-09-13T04:17:42.505Z,952.8139038
2023-09-13T04:18:44.678Z,952.8415527
2023-09-13T04:19:46.976Z,952.8456421
2023-09-13T04:20:49.258Z,952.8150024
2023-09-13T04:21:51.247Z,952.7609253
2023-09-13T04:22:53.069Z,952.8137207
2023-09-13T04:23:55.174Z,952.8233032
2023-09-13T04:24:57.012Z,952.8381348
2023-09-13T04:25:58.924Z,952.8378296
2023-09-13T04:27:00.192Z,952.8181763
2023-09-13T04:28:34.072Z,952.8110352
2023-09-13T04:29:35.945Z,952.8135986
2023-09-13T04:30:38.057Z,952.7698975
2023-09-13T04:31:40.127Z,952.7661133
2023-09-13T04:32:42.067Z,952.7974243
2023-09-13T04:33:44.128Z,952.8325806
2023-09-13T04:34:45.953Z,952.8197632
2023-09-13T04:35:47.978Z,952.8098145
2023-09-13T04:36:50.298Z,952.8087769
2023-09-13T04:37:52.494Z,952.8501587
2023-09-13T04:38:54.413Z,952.7941895
2023-09-13T04:39:56.450Z,952.7491455
2023-09-13T04:40:58.494Z,952.7271118
2023-09-13T04:42:00.604Z,952.7166138
2023-09-13T04:43:33.543Z,952.7606201
2023-09-13T04:44:35.633Z,952.7732544
2023-09-13T04:45:37.548Z,952.7380371
2023-09-13T04:46:39.698Z,952.7404785
2023-09-13T04:47:42.044Z,952.7611084
2023-09-13T04:48:44.218Z,952.7597046
2023-09-13T04:49:46.440Z,952.7737427
2023-09-13T04:50:48.493Z,952.8099976
2023-09-13T04:51:49.829Z,952.8035889
2023-09-13T04:52:52.210Z,952.7976685
2023-09-13T04:53:54.812Z,952.7443848
2023-09-13T04:54:57.113Z,952.8311157
2023-09-13T04:55:58.314Z,952.7733765
2023-09-13T04:57:00.706Z,952.7922363
2023-09-13T04:58:35.879Z,952.7931519
2023-09-13T04:59:36.275Z,952.7941895
2023-09-13T05:00:38.316Z,952.7915649
2023-09-13T05:01:40.576Z,952.7884521
2023-09-13T05:02:42.546Z,952.7669678
2023-09-13T05:03:44.808Z,952.8147583
2023-09-13T05:04:46.586Z,952.8362427
2023-09-13T05:05:48.904Z,952.8371582
2023-09-13T05:06:51.296Z,952.84375
2023-09-13T05:07:53.176Z,952.8510742
2023-09-13T05:08:55.295Z,952.862793
2023-09-13T05:09:57.159Z,952.8972778
2023-09-13T05:10:59.272Z,952.8445435
2023-09-13T05:12:02.558Z,952.8996582
2023-09-13T05:13:35.474Z,952.873291
2023-09-13T05:14:37.646Z,952.9177856
2023-09-13T05:15:39.606Z,952.911377
2023-09-13T05:16:42.146Z,952.925293
2023-09-13T05:17:44.256Z,952.9467163
2023-09-13T05:18:46.212Z,952.9762573
2023-09-13T05:19:48.300Z,953.0332642
2023-09-13T05:20:50.685Z,953.0407715
2023-09-13T05:21:52.706Z,953.1017456
2023-09-13T05:22:54.726Z,953.1287231
2023-09-13T05:23:57.744Z,953.1832275
2023-09-13T05:25:00.068Z,953.1459961
2023-09-13T05:26:02.511Z,953.1939087
2023-09-13T05:27:35.312Z,953.1707764
2023-09-13T05:28:37.823Z,953.1628418
2023-09-13T05:29:40.261Z,953.1529541
2023-09-13T05:30:42.569Z,953.1663818
2023-09-13T05:31:44.779Z,953.1724854
2023-09-13T05:32:46.731Z,953.1412354
2023-09-13T05:33:48.639Z,953.1620483
2023-09-13T05:34:50.666Z,953.15979
2023-09-13T05:35:52.792Z,953.2006226
2023-09-13T05:36:54.834Z,953.2112427
2023-09-13T05:37:57.213Z,953.2132568
2023-09-13T05:38:59.517Z,953.243042
2023-09-13T05:40:00.891Z,953.2179565
2023-09-13T05:41:34.677Z,953.1984863
2023-09-13T05:42:36.675Z,953.2304688
2023-09-13T05:43:38.807Z,953.1802368
2023-09-13T05:44:40.696Z,953.1950684
2023-09-13T05:45:42.658Z,953.1738281
2023-09-13T05:46:44.834Z,953.1598511
2023-09-13T05:47:47.006Z,953.1723633
2023-09-13T05:48:49.370Z,953.1713867
2023-09-13T05:49:51.615Z,953.177002
2023-09-13T05:50:53.807Z,953.1853027
2023-09-13T05:51:56.126Z,953.1367188
2023-09-13T05:52:58.132Z,953.1324463
2023-09-13T05:54:01.004Z,953.1348267
2023-09-13T05:55:33.745Z,953.1242065
2023-09-13T05:56:35.869Z,953.1329956
2023-09-13T05:57:38.302Z,953.1296997
2023-09-13T05:58:40.187Z,953.1608887
2023-09-13T05:59:42.396Z,953.1674805
2023-09-13T06:00:44.692Z,953.147522
2023-09-13T06:01:46.825Z,953.1656494
2023-09-13T06:02:49.222Z,953.1779785
2023-09-13T06:03:51.330Z,953.1605225
2023-09-13T06:04:53.335Z,953.138916
2023-09-13T06:05:55.190Z,953.1643677
2023-09-13T06:06:57.199Z,953.1535034
2023-09-13T06:08:00.003Z,953.1560669
2023-09-13T06:09:02.434Z,953.1612549
2023-09-13T06:10:35.195Z,953.2098389
2023-09-13T06:11:37.177Z,953.1831055
2023-09-13T06:12:39.382Z,953.1716919
2023-09-13T06:13:42.061Z,953.1970215
2023-09-13T06:14:44.203Z,953.1934204
2023-09-13T06:15:46.142Z,953.2022095
2023-09-13T06:16:48.333Z,953.2548218
2023-09-13T06:17:50.238Z,953.2720947
2023-09-13T06:18:52.519Z,953.2452393
2023-09-13T06:19:55.478Z,953.2878418
2023-09-13T06:20:56.820Z,953.2572021
2023-09-13T06:21:58.768Z,953.257019
2023-09-13T06:23:00.670Z,953.3190918
2023-09-13T06:24:34.099Z,953.3121948
2023-09-13T06:25:36.058Z,953.3093872
2023-09-13T06:26:38.453Z,953.3439331
2023-09-13T06:27:40.471Z,953.3585815
2023-09-13T06:28:42.728Z,953.3787231
2023-09-13T06:29:45.249Z,953.4348145
2023-09-13T06:31:00.120Z,953.3926392
2023-09-13T06:32:01.777Z,953.4345093
2023-09-13T06:33:05.686Z,953.4624023
2023-09-13T06:33:51.695Z,953.4707642
2023-09-13T06:34:53.990Z,953.4831543
2023-09-13T06:35:56.910Z,953.5150146
2023-09-13T06:36:58.881Z,953.4835205
2023-09-13T06:38:00.605Z,953.52771
2023-09-13T06:39:33.394Z,953.5119019
2023-09-13T06:40:36.348Z,953.4829102
2023-09-13T06:41:37.414Z,953.4998169
2023-09-13T06:42:53.784Z,953.491272
2023-09-13T06:43:54.796Z,953.4785767
2023-09-13T06:44:47.132Z,953.4852295
2023-09-13T06:46:00.155Z,953.5170288
2023-09-13T06:46:53.986Z,953.5384521
2023-09-13T06:47:50.269Z,953.5776367
2023-09-13T06:48:53.217Z,953.5770264
2023-09-13T06:49:55.308Z,953.5593872
2023-09-13T06:52:01.132Z,953.5881348
2023-09-13T06:53:25.811Z,953.557373
2023-09-13T06:54:36.619Z,953.5559082
2023-09-13T06:55:38.261Z,953.59375
2023-09-13T06:56:41.166Z,953.6281738
2023-09-13T06:57:43.458Z,953.5935669
2023-09-13T06:58:43.798Z,953.6329956
2023-09-13T06:59:52.929Z,953.6487427
2023-09-13T07:01:04.674Z,953.6748657
2023-09-13T07:02:53.686Z,953.7166138
2023-09-13T07:03:56.648Z,953.7851563
2023-09-13T07:05:57.597Z,953.7697144
2023-09-13T07:06:59.234Z,953.7984619
2023-09-13T07:08:33.184Z,953.781311
2023-09-13T07:09:35.206Z,953.8067017
2023-09-13T07:10:37.234Z,953.8027954
2023-09-13T07:11:39.283Z,953.8034668
2023-09-13T07:12:41.781Z,953.779541
2023-09-13T07:13:44.053Z,953.8255615
2023-09-13T07:14:45.996Z,953.7943726
2023-09-13T07:15:48.057Z,953.7991333
2023-09-13T07:16:50.677Z,953.8556519
2023-09-13T07:17:52.761Z,953.8739014
2023-09-13T07:18:54.643Z,953.8814697
2023-09-13T07:19:56.677Z,953.8682861
2023-09-13T07:20:59.512Z,953.8658447
2023-09-13T07:22:02.021Z,953.9038086
2023-09-13T07:23:35.379Z,953.9210815
2023-09-13T07:24:37.354Z,953.9146729
2023-09-13T07:25:39.708Z,953.9187012
2023-09-13T07:26:41.837Z,953.9403076
2023-09-13T07:27:43.908Z,953.9545288
2023-09-13T07:28:46.537Z,953.9437256
2023-09-13T07:29:48.890Z,953.9554443
2023-09-13T07:30:50.162Z,953.9349365
2023-09-13T07:31:52.459Z,953.9398193
2023-09-13T07:32:54.805Z,953.9816895
2023-09-13T07:33:56.779Z,953.9660645
2023-09-13T07:34:59.611Z,953.967041
2023-09-13T07:36:01.960Z,953.9902954
2023-09-13T07:37:34.854Z,954.020752
2023-09-13T07:38:36.856Z,954.0259399
2023-09-13T07:39:39.230Z,954.0504761
2023-09-13T07:40:41.541Z,954.0594482
2023-09-13T07:41:43.881Z,954.0561523
2023-09-13T07:42:46.252Z,954.0444336
2023-09-13T07:43:48.469Z,954.036377
2023-09-13T07:44:50.196Z,954.0353394
2023-09-13T07:45:52.342Z,954.027832
2023-09-13T07:46:54.889Z,954.0515137
2023-09-13T07:47:57.559Z,954.0421753
2023-09-13T07:48:59.474Z,954.064209
2023-09-13T07:50:02.370Z,954.0804443
2023-09-13T07:51:34.846Z,954.1040649
2023-09-13T07:53:00.420Z,954.1121216
2023-09-13T07:53:39.353Z,954.1161499
2023-09-13T07:54:41.621Z,954.1310425
2023-09-13T07:55:43.941Z,954.1331177
2023-09-13T07:56:46.283Z,954.1263428
2023-09-13T07:57:48.207Z,954.1243896
2023-09-13T07:58:50.292Z,954.1015625
2023-09-13T07:59:52.306Z,954.0665894
2023-09-13T08:00:55.131Z,954.1018677
2023-09-13T08:01:56.881Z,954.1442261
2023-09-13T08:02:58.883Z,954.1084595
2023-09-13T08:04:01.394Z,954.1004639
2023-09-13T08:05:34.812Z,954.132019
2023-09-13T08:06:36.702Z,954.1442261
2023-09-13T08:07:38.738Z,954.1333008
2023-09-13T08:08:40.617Z,954.1637573
2023-09-13T08:09:42.663Z,954.1864014
2023-09-13T08:10:44.673Z,954.1658325
2023-09-13T08:11:46.696Z,954.1797485
2023-09-13T08:12:48.710Z,954.1722412
2023-09-13T08:13:50.789Z,954.1783447
2023-09-13T08:14:52.818Z,954.1879883
2023-09-13T08:15:54.939Z,954.1556396
2023-09-13T08:16:56.681Z,954.1681519
2023-09-13T08:17:58.132Z,954.1768799
2023-09-13T08:18:59.527Z,954.1612549
2023-09-13T08:20:33.460Z,954.1617432
2023-09-13T08:21:36.011Z,954.1367188
2023-09-13T08:22:40.377Z,954.1520996
2023-09-13T08:23:40.297Z,954.210144
2023-09-13T08:24:42.396Z,954.1727905
2023-09-13T08:25:44.930Z,954.2098389
2023-09-13T08:26:47.407Z,954.1690674
2023-09-13T08:27:49.849Z,954.140686
2023-09-13T08:28:51.852Z,954.1746826
2023-09-13T08:29:55.061Z,954.1743164
2023-09-13T08:30:57.669Z,954.1403198
2023-09-13T08:31:59.092Z,954.2009277
2023-09-13T08:33:32.687Z,954.2033081
2023-09-13T08:34:35.129Z,954.2258301
2023-09-13T08:35:37.200Z,954.2628174
2023-09-13T08:36:39.420Z,954.3154907
2023-09-13T08:37:41.843Z,954.3259277
2023-09-13T08:38:44.335Z,954.4381104
2023-09-13T08:39:46.491Z,954.4031982
2023-09-13T08:40:48.676Z,954.4057617
2023-09-13T08:41:50.713Z,954.4237671
2023-09-13T08:42:52.785Z,954.4294434
2023-09-13T08:43:54.928Z,954.4271851
2023-09-13T08:44:57.234Z,954.407959
2023-09-13T08:45:59.243Z,954.390564
2023-09-13T08:47:39.437Z,954.4169312
2023-09-13T08:48:33.880Z,954.3754883
2023-09-13T08:49:35.338Z,954.3926392
2023-09-13T08:50:38.015Z,954.3635254
2023-09-13T08:51:40.237Z,954.427002
2023-09-13T08:52:42.429Z,954.4354858
2023-09-13T08:53:43.925Z,954.454895
2023-09-13T08:54:58.054Z,954.4629517
2023-09-13T08:55:46.640Z,954.486084
2023-09-13T08:56:48.144Z,954.4678345
2023-09-13T08:57:50.225Z,954.4932861
2023-09-13T08:58:52.134Z,954.5061646
2023-09-13T08:59:54.143Z,954.4749146
2023-09-13T09:00:56.195Z,954.5029907
2023-09-13T09:01:57.550Z,954.5275269
2023-09-13T09:03:00.697Z,954.5618896
2023-09-13T09:04:32.649Z,954.5806885
2023-09-13T09:05:34.016Z,954.545105
2023-09-13T09:06:36.263Z,954.6095581
2023-09-13T09:07:38.236Z,954.5913086
2023-09-13T09:08:40.399Z,954.5739136
2023-09-13T09:09:42.783Z,954.5918579
2023-09-13T09:10:44.761Z,954.5637207
2023-09-13T09:11:46.728Z,954.5992432
2023-09-13T09:12:48.701Z,954.6124268
2023-09-13T09:13:50.717Z,954.6322021
2023-09-13T09:14:52.760Z,954.6088867
2023-09-13T09:15:54.958Z,954.5949097
2023-09-13T09:16:57.534Z,954.6152954
2023-09-13T09:17:59.662Z,954.6026611
2023-09-13T09:19:32.205Z,954.5882568
2023-09-13T09:20:34.218Z,954.6060791
2023-09-13T09:21:36.332Z,954.5984497
2023-09-13T09:22:38.321Z,954.5998535
2023-09-13T09:23:40.177Z,954.6150513
2023-09-13T09:24:42.073Z,954.604248
2023-09-13T09:25:44.074Z,954.6330566
2023-09-13T09:26:45.515Z,954.6245117
2023-09-13T09:27:47.771Z,954.682251
2023-09-13T09:28:52.079Z,954.6860962
2023-09-13T09:29:52.054Z,954.6437988
2023-09-13T09:30:53.956Z,954.6526489
2023-09-13T09:31:55.491Z,954.715332
2023-09-13T09:32:57.201Z,954.6709595
2023-09-13T09:33:59.310Z,954.6635742
2023-09-13T09:35:32.395Z,954.6426392
2023-09-13T09:36:34.767Z,954.5873413
2023-09-13T09:37:36.859Z,954.6079712
2023-09-13T09:38:38.783Z,954.5963135
2023-09-13T09:39:40.827Z,954.5449219
2023-09-13T09:40:43.326Z,954.5736084
2023-09-13T09:41:45.597Z,954.5554199
2023-09-13T09:42:47.556Z,954.6017456
2023-09-13T09:43:49.013Z,954.6165771
2023-09-13T09:44:51.268Z,954.6004028
2023-09-13T09:45:53.345Z,954.6112671
2023-09-13T09:46:56.244Z,954.5873413
2023-09-13T09:47:58.190Z,954.6057739
2023-09-13T09:49:00.452Z,954.6273193
2023-09-13T09:50:33.278Z,954.6242065
2023-09-13T09:51:35.102Z,954.5828247
2023-09-13T09:52:37.215Z,954.5901489
2023-09-13T09:53:39.305Z,954.5611572
2023-09-13T09:54:41.189Z,954.5823364
2023-09-13T09:55:43.882Z,954.5896606
2023-09-13T09:56:45.849Z,954.5801392
2023-09-13T09:57:47.720Z,954.5639038
2023-09-13T09:58:50.079Z,954.555603
2023-09-13T09:59:51.999Z,954.5561523
2023-09-13T10:00:53.648Z,954.5708008
2023-09-13T10:01:55.807Z,954.5603027
2023-09-13T10:02:57.831Z,954.5840454
2023-09-13T10:04:01.178Z,954.5931396
2023-09-13T10:05:33.770Z,954.5828247
2023-09-13T10:06:35.714Z,954.6040649
2023-09-13T10:07:37.888Z,954.6218872
2023-09-13T10:08:39.794Z,954.6173706
2023-09-13T10:09:42.020Z,954.616272
2023-09-13T10:10:44.225Z,954.5599976
2023-09-13T10:11:46.612Z,954.6132813
2023-09-13T10:12:47.920Z,954.5726318
2023-09-13T10:13:50.279Z,954.6010742
2023-09-13T10:14:52.289Z,954.5909424
2023-09-13T10:15:54.909Z,954.6350098
2023-09-13T10:16:57.092Z,954.6317139
2023-09-13T10:17:59.433Z,954.6461792
2023-09-13T10:19:32.253Z,954.6796875
2023-09-13T10:20:34.300Z,954.6776733
2023-09-13T10:21:36.278Z,954.6542358
2023-09-13T10:22:38.403Z,954.6589355
2023-09-13T10:23:40.872Z,954.7171631
2023-09-13T10:24:42.985Z,954.7017212
2023-09-13T10:25:45.157Z,954.6884155
2023-09-13T10:26:47.369Z,954.7025146
2023-09-13T10:27:49.138Z,954.6849976
2023-09-13T10:28:51.134Z,954.696228
2023-09-13T10:29:53.501Z,954.730957
2023-09-13T10:30:55.695Z,954.7612305
2023-09-13T10:31:57.694Z,954.7718506
2023-09-13T10:32:59.786Z,954.7487793
2023-09-13T10:34:32.797Z,954.7418823
2023-09-13T10:35:35.057Z,954.7714233
2023-09-13T10:36:37.294Z,954.7580566
2023-09-13T10:37:39.261Z,954.7123413
2023-09-13T10:38:41.146Z,954.7050171
2023-09-13T10:39:43.993Z,954.7697144
2023-09-13T10:40:46.276Z,954.7248535
2023-09-13T10:41:48.256Z,954.7199707
2023-09-13T10:42:50.269Z,954.7165527
2023-09-13T10:43:52.498Z,954.7312622
2023-09-13T10:44:54.741Z,954.7360229
2023-09-13T10:45:57.034Z,954.7796631
2023-09-13T10:46:59.248Z,954.7178345
2023-09-13T10:48:31.647Z,954.8069458
2023-09-13T10:49:33.606Z,954.7327881
2023-09-13T10:50:34.925Z,954.6877441
2023-09-13T10:51:37.269Z,954.6781006
2023-09-13T10:52:39.386Z,954.7306519
2023-09-13T10:53:41.486Z,954.6782227
2023-09-13T10:54:43.763Z,954.6791992
2023-09-13T10:55:45.716Z,954.6835938
2023-09-13T10:56:47.752Z,954.6846924
2023-09-13T10:57:49.792Z,954.6456299
2023-09-13T10:58:51.871Z,954.6400146
2023-09-13T10:59:53.322Z,954.6264038
2023-09-13T11:00:55.154Z,954.6501465
2023-09-13T11:01:57.461Z,954.637207
2023-09-13T11:03:31.906Z,954.6412354
2023-09-13T11:04:33.770Z,954.6536865
2023-09-13T11:05:35.885Z,954.6431885
2023-09-13T11:06:37.694Z,954.6417236
2023-09-13T11:07:39.812Z,954.6567993
2023-09-13T11:08:41.946Z,954.6768799
2023-09-13T11:09:44.329Z,954.6765747
2023-09-13T11:10:46.257Z,954.6427612
2023-09-13T11:11:48.168Z,954.611084
2023-09-13T11:12:50.829Z,954.6364136
2023-09-13T11:13:52.287Z,954.5976563
2023-09-13T11:14:54.157Z,954.6187744
2023-09-13T11:15:57.105Z,954.5865479
2023-09-13T11:16:59.164Z,954.6707764
2023-09-13T11:18:31.686Z,954.6532593
2023-09-13T11:19:33.892Z,954.6557617
2023-09-13T11:20:35.682Z,954.6387329
2023-09-13T11:21:37.915Z,954.6467285
2023-09-13T11:22:40.397Z,954.6379395
2023-09-13T11:24:57.840Z,954.6132813
2023-09-13T11:26:00.936Z,954.6286621
2023-09-13T11:26:48.159Z,954.6209106
2023-09-13T11:27:50.225Z,954.633606
2023-09-13T11:28:52.247Z,954.6184082
2023-09-13T11:29:53.570Z,954.6195068
2023-09-13T11:30:55.024Z,954.5876465
2023-09-13T11:32:00.576Z,954.6340332
2023-09-13T11:32:59.708Z,954.6325073
2023-09-13T11:34:33.030Z,954.6057739
2023-09-13T11:35:35.211Z,954.6246948
2023-09-13T11:36:37.399Z,954.6108398
2023-09-13T11:37:39.680Z,954.6077881
2023-09-13T11:39:11.932Z,954.6166992
2023-09-13T11:40:45.563Z,954.6361084
2023-09-13T11:41:54.492Z,954.6073608
2023-09-13T11:43:02.400Z,954.6141968